createdAt,value
2022-08-17T00:00:44.113Z,16.60
2022-08-17T00:03:10.597Z,16.70
2022-08-17T00:05:43.648Z,16.80
2022-08-17T00:08:12.564Z,16.70
2022-08-17T00:10:40.860Z,16.60
2022-08-17T00:13:11.511Z,16.60
2022-08-17T00:15:41.283Z,16.50
2022-08-17T00:19:06.323Z,16.30
2022-08-17T00:20:58.697Z,16.30
2022-08-17T00:23:28.291Z,16.30
2022-08-17T00:25:56.707Z,16.40
2022-08-17T00:28:25.136Z,16.40
2022-08-17T00:30:55.747Z,16.30
2022-08-17T00:33:27.551Z,16.10
2022-08-17T00:35:57.126Z,16.10
2022-08-17T00:38:26.224Z,16.10
2022-08-17T00:40:59.261Z,16.10
2022-08-17T00:43:32.668Z,16.10
2022-08-17T00:46:06.903Z,16.10
2022-08-17T00:48:35.962Z,16.10
2022-08-17T00:51:13.451Z,16.00
2022-08-17T00:53:48.849Z,16.00
2022-08-17T00:56:21.045Z,15.90
2022-08-17T00:58:52.913Z,15.90
2022-08-17T01:01:22.731Z,15.90
2022-08-17T01:03:52.600Z,15.90
2022-08-17T01:06:24.873Z,15.70
2022-08-17T01:08:57.635Z,15.60
2022-08-17T01:11:26.337Z,15.70
2022-08-17T01:13:54.863Z,15.70
2022-08-17T01:16:28.257Z,15.70
2022-08-17T01:19:01.204Z,15.90
2022-08-17T01:21:34.314Z,16.00
2022-08-17T01:24:05.383Z,15.80
2022-08-17T01:26:35.643Z,15.70
2022-08-17T01:29:06.585Z,15.60
2022-08-17T01:31:39.148Z,15.30
2022-08-17T01:34:10.949Z,15.10
2022-08-17T01:36:40.470Z,15.10
2022-08-17T01:39:14.759Z,14.70
2022-08-17T01:41:43.314Z,14.80
2022-08-17T01:44:11.617Z,14.90
2022-08-17T01:46:39.786Z,15.00
2022-08-17T01:49:08.953Z,14.80
2022-08-17T01:51:37.179Z,15.00
2022-08-17T01:54:09.453Z,15.00
2022-08-17T01:56:42.326Z,14.90
2022-08-17T01:59:11.840Z,14.70
2022-08-17T02:01:40.372Z,14.70
2022-08-17T02:04:09.178Z,14.50
2022-08-17T02:06:52.474Z,14.30
2022-08-17T02:09:23.984Z,14.50
2022-08-17T02:11:56.667Z,14.50
2022-08-17T02:14:25.771Z,14.50
2022-08-17T02:16:56.100Z,14.50
2022-08-17T02:19:24.266Z,14.60
2022-08-17T02:21:54.729Z,14.80
2022-08-17T02:25:00.592Z,15.00
2022-08-17T02:27:15.396Z,15.00
2022-08-17T02:29:43.441Z,15.00
2022-08-17T02:32:20.669Z,15.00
2022-08-17T02:34:55.745Z,15.00
2022-08-17T02:37:23.918Z,14.90
2022-08-17T02:39:52.111Z,14.90
2022-08-17T02:42:27.684Z,14.90
2022-08-17T02:44:55.879Z,15.00
2022-08-17T02:47:24.515Z,14.70
2022-08-17T02:49:55.410Z,14.70
2022-08-17T02:52:42.766Z,14.40
2022-08-17T02:55:14.688Z,14.60
2022-08-17T02:57:44.678Z,14.30
2022-08-17T03:00:16.350Z,14.10
2022-08-17T03:02:45.829Z,14.40
2022-08-17T03:05:15.892Z,14.30
2022-08-17T03:07:44.073Z,14.20
2022-08-17T03:10:12.746Z,13.90
2022-08-17T03:12:43.453Z,13.90
2022-08-17T03:15:14.278Z,14.00
2022-08-17T03:17:42.508Z,14.00
2022-08-17T03:20:11.805Z,13.90
2022-08-17T03:22:42.831Z,13.80
2022-08-17T03:25:19.587Z,13.90
2022-08-17T03:27:52.458Z,13.80
2022-08-17T03:30:22.387Z,14.10
2022-08-17T03:32:53.293Z,14.10
2022-08-17T03:35:23.514Z,14.00
2022-08-17T03:38:00.036Z,14.10
2022-08-17T03:40:55.213Z,14.30
2022-08-17T03:43:19.809Z,14.20
2022-08-17T03:46:05.803Z,14.10
2022-08-17T03:48:56.280Z,14.10
2022-08-17T03:51:43.709Z,14.10
2022-08-17T03:54:30.636Z,14.00
2022-08-17T03:57:03.277Z,14.00
2022-08-17T03:59:33.291Z,14.10
2022-08-17T04:02:07.366Z,14.00
2022-08-17T04:04:35.890Z,14.00
2022-08-17T04:07:04.303Z,14.30
2022-08-17T04:09:32.341Z,14.10
2022-08-17T04:12:01.325Z,14.20
2022-08-17T04:14:36.695Z,14.40
2022-08-17T04:17:21.186Z,14.50
2022-08-17T04:19:49.220Z,14.70
2022-08-17T04:22:31.130Z,14.50
2022-08-17T04:25:04.029Z,14.40
2022-08-17T04:27:32.195Z,14.30
2022-08-17T04:30:01.784Z,14.30
2022-08-17T04:33:05.486Z,14.50
2022-08-17T04:35:23.011Z,14.70
2022-08-17T04:37:51.218Z,14.80
2022-08-17T04:40:38.030Z,14.80
2022-08-17T04:43:08.651Z,14.80
2022-08-17T04:45:55.023Z,15.00
2022-08-17T04:48:32.239Z,15.10
2022-08-17T04:51:09.744Z,15.20
2022-08-17T04:53:38.731Z,15.30
2022-08-17T04:56:07.177Z,15.30
2022-08-17T04:58:35.355Z,15.50
2022-08-17T05:01:05.907Z,15.50
2022-08-17T05:03:34.143Z,15.80
2022-08-17T05:06:02.241Z,16.10
2022-08-17T05:08:30.591Z,16.20
2022-08-17T05:10:58.625Z,16.30
2022-08-17T05:13:29.569Z,16.40
2022-08-17T05:16:00.467Z,16.50
2022-08-17T05:18:31.026Z,16.50
2022-08-17T05:20:59.562Z,16.80
2022-08-17T05:23:41.671Z,17.00
2022-08-17T05:26:21.374Z,17.20
2022-08-17T05:28:55.448Z,17.20
2022-08-17T05:31:25.812Z,17.10
2022-08-17T05:33:55.324Z,17.30
2022-08-17T05:36:42.397Z,17.40
2022-08-17T05:39:16.815Z,17.50
2022-08-17T05:41:47.407Z,17.40
2022-08-17T05:44:15.776Z,17.60
2022-08-17T05:46:48.923Z,17.70
2022-08-17T05:49:24.317Z,17.80
2022-08-17T05:52:14.781Z,18.00
2022-08-17T05:54:58.439Z,18.00
2022-08-17T05:57:57.321Z,18.10
2022-08-17T06:00:30.075Z,18.20
2022-08-17T06:03:35.315Z,18.20
2022-08-17T06:06:18.192Z,18.30
2022-08-17T06:08:52.115Z,18.40
2022-08-17T06:11:28.468Z,18.60
2022-08-17T06:14:10.491Z,18.70
2022-08-17T06:16:46.011Z,19.00
2022-08-17T06:19:18.574Z,19.20
2022-08-17T06:21:51.150Z,19.20
2022-08-17T06:24:28.429Z,19.20
2022-08-17T06:27:01.135Z,19.40
2022-08-17T06:29:38.533Z,19.80
2022-08-17T06:32:10.225Z,19.70
2022-08-17T06:34:42.384Z,19.60
2022-08-17T06:37:34.513Z,19.90
2022-08-17T06:40:20.627Z,19.90
2022-08-17T06:43:05.616Z,19.80
2022-08-17T06:45:40.180Z,20.00
2022-08-17T06:48:16.252Z,20.20
2022-08-17T06:50:53.411Z,20.40
2022-08-17T06:53:27.814Z,20.50
2022-08-17T06:55:59.878Z,20.60
2022-08-17T06:58:31.454Z,20.70
2022-08-17T07:01:05.000Z,20.60
2022-08-17T07:03:37.935Z,20.70
2022-08-17T07:06:09.726Z,20.60
2022-08-17T07:08:52.353Z,20.60
2022-08-17T07:11:27.375Z,21.10
2022-08-17T07:14:06.638Z,21.10
2022-08-17T07:16:41.089Z,21.10
2022-08-17T07:19:10.930Z,20.90
2022-08-17T07:21:58.594Z,21.10
2022-08-17T07:24:35.547Z,21.30
2022-08-17T07:27:10.299Z,21.50
2022-08-17T07:29:42.391Z,21.30
2022-08-17T07:32:12.423Z,21.30
2022-08-17T07:35:23.001Z,21.50
2022-08-17T07:37:55.605Z,21.80
2022-08-17T07:40:29.410Z,21.90
2022-08-17T07:43:22.255Z,21.90
2022-08-17T07:46:32.128Z,21.80
2022-08-17T07:49:19.930Z,22.00
2022-08-17T07:52:24.245Z,22.20
2022-08-17T07:54:49.369Z,22.10
2022-08-17T07:57:33.856Z,22.10
2022-08-17T08:00:24.367Z,22.50
2022-08-17T08:03:21.679Z,22.70
2022-08-17T08:05:56.282Z,22.40
2022-08-17T08:08:29.912Z,22.40
2022-08-17T08:11:08.845Z,22.70
2022-08-17T08:13:42.538Z,22.70
2022-08-17T08:16:22.630Z,22.70
2022-08-17T08:18:56.719Z,23.00
2022-08-17T08:21:37.423Z,23.00
2022-08-17T08:24:26.388Z,23.60
2022-08-17T08:27:13.798Z,23.80
2022-08-17T08:29:50.024Z,23.80
2022-08-17T08:32:22.889Z,23.90
2022-08-17T08:35:04.592Z,23.60
2022-08-17T08:37:44.477Z,23.70
2022-08-17T08:40:34.532Z,23.60
2022-08-17T08:43:12.594Z,24.30
2022-08-17T08:45:50.131Z,24.40
2022-08-17T08:48:53.749Z,24.50
2022-08-17T08:51:35.775Z,24.30
2022-08-17T08:54:12.445Z,24.20
2022-08-17T08:57:11.976Z,24.30
2022-08-17T08:59:41.960Z,24.60
2022-08-17T09:02:24.938Z,24.50
2022-08-17T09:05:20.366Z,24.80
2022-08-17T09:07:57.386Z,24.40
2022-08-17T09:10:31.607Z,25.20
2022-08-17T09:13:11.035Z,25.10
2022-08-17T09:15:43.440Z,25.50
2022-08-17T09:19:03.583Z,25.70
2022-08-17T09:21:12.417Z,25.50
2022-08-17T09:23:49.436Z,26.00
2022-08-17T09:26:22.829Z,25.90
2022-08-17T09:28:52.876Z,25.40
2022-08-17T09:31:27.686Z,25.30
2022-08-17T09:34:03.327Z,25.90
2022-08-17T09:36:35.957Z,26.10
2022-08-17T09:39:10.025Z,26.40
2022-08-17T09:41:48.889Z,26.20
2022-08-17T09:44:26.934Z,26.20
2022-08-17T09:47:05.115Z,26.40
2022-08-17T09:49:39.203Z,26.10
2022-08-17T09:52:16.719Z,26.20
2022-08-17T09:54:47.714Z,26.30
2022-08-17T09:57:31.039Z,26.40
2022-08-17T10:00:16.800Z,27.20
2022-08-17T10:03:18.904Z,27.30
2022-08-17T10:05:56.562Z,26.90
2022-08-17T10:08:37.737Z,27.60
2022-08-17T10:11:16.707Z,27.60
2022-08-17T10:13:52.695Z,27.00
2022-08-17T10:16:30.533Z,27.20
2022-08-17T10:19:08.121Z,27.90
2022-08-17T10:22:00.893Z,28.20
2022-08-17T10:25:21.296Z,28.50
2022-08-17T10:27:44.967Z,27.80
2022-08-17T10:30:18.074Z,28.40
2022-08-17T10:32:55.112Z,29.00
2022-08-17T10:35:39.147Z,28.80
2022-08-17T10:38:30.004Z,28.80
2022-08-17T10:41:02.455Z,29.60
2022-08-17T10:43:41.763Z,29.30
2022-08-17T10:46:30.949Z,29.00
2022-08-17T10:49:24.285Z,30.00
2022-08-17T10:51:54.476Z,30.40
2022-08-17T10:55:06.238Z,30.60
2022-08-17T10:57:38.660Z,30.00
2022-08-17T11:00:14.720Z,30.30
2022-08-17T11:02:50.816Z,30.30
2022-08-17T11:05:43.495Z,30.30
2022-08-17T11:08:35.650Z,29.60
2022-08-17T11:11:36.059Z,29.90
2022-08-17T11:14:24.035Z,29.00
2022-08-17T11:17:08.745Z,29.90
2022-08-17T11:20:04.848Z,31.20
2022-08-17T11:22:57.999Z,31.10
2022-08-17T11:25:38.362Z,30.20
2022-08-17T11:28:17.424Z,30.40
2022-08-17T11:30:51.872Z,30.80
2022-08-17T11:33:52.721Z,31.00
2022-08-17T11:36:41.963Z,30.10
2022-08-17T11:39:33.290Z,31.10
2022-08-17T11:42:07.001Z,31.20
2022-08-17T11:44:47.855Z,31.50
2022-08-17T11:47:38.715Z,31.80
2022-08-17T11:50:55.049Z,30.80
2022-08-17T11:54:21.430Z,31.10
2022-08-17T11:56:49.848Z,31.30
2022-08-17T11:59:58.556Z,31.60
2022-08-17T12:02:47.376Z,31.90
2022-08-17T12:05:35.092Z,31.20
2022-08-17T12:08:18.519Z,31.80
2022-08-17T12:10:57.071Z,31.20
2022-08-17T12:13:27.364Z,31.40
2022-08-17T12:16:06.779Z,31.70
2022-08-17T12:18:39.611Z,32.20
2022-08-17T12:21:45.002Z,31.80
2022-08-17T12:24:38.765Z,31.40
2022-08-17T12:27:10.590Z,31.10
2022-08-17T12:29:45.119Z,31.30
2022-08-17T12:32:20.108Z,31.40
2022-08-17T12:34:51.258Z,31.10
2022-08-17T12:37:22.752Z,32.70
2022-08-17T12:39:59.793Z,32.80
2022-08-17T12:42:31.599Z,32.40
2022-08-17T12:45:00.145Z,32.80
2022-08-17T12:47:31.888Z,32.70
2022-08-17T12:50:28.194Z,32.80
2022-08-17T12:53:01.699Z,33.70
2022-08-17T12:55:36.877Z,33.90
2022-08-17T12:58:05.873Z,33.40
2022-08-17T13:00:37.963Z,33.10
2022-08-17T13:03:09.720Z,32.40
2022-08-17T13:05:48.355Z,33.10
2022-08-17T13:08:18.878Z,33.70
2022-08-17T13:10:56.431Z,33.60
2022-08-17T13:13:27.323Z,32.90
2022-08-17T13:15:58.192Z,31.60
2022-08-17T13:18:43.694Z,32.20
2022-08-17T13:21:26.849Z,32.70
2022-08-17T13:24:00.893Z,35.00
2022-08-17T13:26:33.908Z,34.00
2022-08-17T13:29:05.335Z,33.70
2022-08-17T13:31:49.809Z,34.10
2022-08-17T13:35:11.537Z,33.20
2022-08-17T13:37:33.146Z,34.90
2022-08-17T13:40:05.621Z,35.00
2022-08-17T13:42:51.741Z,35.00
2022-08-17T13:45:50.514Z,34.30
2022-08-17T13:48:27.274Z,34.70
2022-08-17T13:51:23.183Z,34.80
2022-08-17T13:54:02.454Z,35.70
2022-08-17T13:57:06.115Z,36.50
2022-08-17T13:59:54.804Z,34.90
2022-08-17T14:02:27.817Z,34.90
2022-08-17T14:04:57.841Z,34.80
2022-08-17T14:07:37.344Z,34.70
2022-08-17T14:10:11.297Z,34.70
2022-08-17T14:12:41.504Z,34.40
2022-08-17T14:15:11.174Z,35.00
2022-08-17T14:17:39.636Z,35.30
2022-08-17T14:20:10.771Z,36.10
2022-08-17T14:22:46.226Z,36.40
2022-08-17T14:25:15.739Z,35.60
2022-08-17T14:27:53.456Z,35.30
2022-08-17T14:30:23.748Z,36.70
2022-08-17T14:32:52.719Z,36.00
2022-08-17T14:35:23.221Z,36.20
2022-08-17T14:37:53.845Z,36.40
2022-08-17T14:40:24.393Z,36.50
2022-08-17T14:42:53.736Z,37.10
2022-08-17T14:45:29.850Z,36.70
2022-08-17T14:48:04.180Z,37.20
2022-08-17T14:50:35.793Z,36.40
2022-08-17T14:53:06.396Z,36.10
2022-08-17T14:55:35.484Z,35.90
2022-08-17T14:58:04.250Z,36.00
2022-08-17T15:00:32.547Z,36.20
2022-08-17T15:03:02.207Z,35.70
2022-08-17T15:05:36.501Z,36.70
2022-08-17T15:08:07.237Z,37.30
2022-08-17T15:10:36.195Z,36.80
2022-08-17T15:13:04.899Z,37.70
2022-08-17T15:15:33.003Z,39.50
2022-08-17T15:18:02.380Z,39.70
2022-08-17T15:20:31.322Z,38.60
2022-08-17T15:22:59.958Z,39.00
2022-08-17T15:25:31.906Z,38.50
2022-08-17T15:28:01.432Z,38.30
2022-08-17T15:30:30.334Z,38.00
2022-08-17T15:33:00.635Z,38.30
2022-08-17T15:35:31.503Z,37.30
2022-08-17T15:38:04.923Z,37.20
2022-08-17T15:40:36.858Z,37.60
2022-08-17T15:43:10.325Z,37.20
2022-08-17T15:45:38.633Z,37.30
2022-08-17T15:48:06.933Z,37.60
2022-08-17T15:50:34.990Z,36.60
2022-08-17T15:53:04.667Z,36.50
2022-08-17T15:55:35.011Z,36.30
2022-08-17T15:58:03.113Z,36.00
2022-08-17T16:00:31.406Z,36.50
2022-08-17T16:03:57.411Z,37.00
2022-08-17T16:06:08.393Z,37.00
2022-08-17T16:08:41.569Z,36.70
2022-08-17T16:11:12.474Z,36.50
2022-08-17T16:13:41.579Z,35.70
2022-08-17T16:16:11.664Z,35.20
2022-08-17T16:18:40.332Z,36.00
2022-08-17T16:21:31.163Z,35.80
2022-08-17T16:24:13.074Z,35.60
2022-08-17T16:26:44.433Z,35.00
2022-08-17T16:29:12.490Z,34.60
2022-08-17T16:31:41.416Z,34.40
2022-08-17T16:34:16.813Z,34.50
2022-08-17T16:36:55.110Z,33.70
2022-08-17T16:39:25.946Z,33.70
2022-08-17T16:41:56.166Z,33.50
2022-08-17T16:44:26.022Z,34.00
2022-08-17T16:46:54.208Z,34.00
2022-08-17T16:49:35.079Z,34.10
2022-08-17T16:52:07.818Z,34.30
2022-08-17T16:54:38.265Z,33.90
2022-08-17T16:57:07.985Z,33.70
2022-08-17T16:59:41.902Z,33.90
2022-08-17T17:02:15.875Z,33.70
2022-08-17T17:04:48.474Z,32.90
2022-08-17T17:07:34.994Z,32.70
2022-08-17T17:10:08.457Z,32.60
2022-08-17T17:13:01.669Z,32.60
2022-08-17T17:15:33.769Z,32.20
2022-08-17T17:18:07.269Z,32.00
2022-08-17T17:20:43.886Z,32.00
2022-08-17T17:23:24.651Z,31.90
2022-08-17T17:26:00.356Z,31.80
2022-08-17T17:28:40.455Z,31.70
2022-08-17T17:31:15.478Z,31.40
2022-08-17T17:33:48.297Z,31.40
2022-08-17T17:36:25.242Z,31.30
2022-08-17T17:38:55.357Z,31.20
2022-08-17T17:41:29.170Z,30.90
2022-08-17T17:44:07.558Z,30.80
2022-08-17T17:46:39.445Z,30.60
2022-08-17T17:49:10.117Z,30.20
2022-08-17T17:52:06.484Z,30.30
2022-08-17T17:54:48.191Z,30.20
2022-08-17T17:57:24.587Z,30.50
2022-08-17T18:00:03.182Z,30.30
2022-08-17T18:02:53.288Z,30.10
2022-08-17T18:05:37.335Z,29.90
2022-08-17T18:08:14.967Z,29.60
2022-08-17T18:10:51.020Z,29.30
2022-08-17T18:13:29.262Z,29.10
2022-08-17T18:16:00.974Z,29.30
2022-08-17T18:18:38.498Z,29.10
2022-08-17T18:21:15.762Z,28.80
2022-08-17T18:23:55.077Z,28.40
2022-08-17T18:26:41.913Z,28.10
2022-08-17T18:29:22.222Z,27.80
2022-08-17T18:32:32.437Z,27.80
2022-08-17T18:35:27.653Z,27.90
2022-08-17T18:37:57.897Z,27.60
2022-08-17T18:40:33.498Z,27.30
2022-08-17T18:43:07.383Z,27.10
2022-08-17T18:45:40.740Z,26.70
2022-08-17T18:48:21.012Z,26.60
2022-08-17T18:50:49.626Z,26.40
2022-08-17T18:53:30.199Z,26.30
2022-08-17T18:56:24.576Z,26.20
2022-08-17T18:58:59.525Z,26.40
2022-08-17T19:01:53.234Z,26.20
2022-08-17T19:04:37.112Z,26.10
2022-08-17T19:07:27.450Z,25.90
2022-08-17T19:10:00.364Z,25.70
2022-08-17T19:12:34.047Z,25.50
2022-08-17T19:15:03.573Z,25.30
2022-08-17T19:17:40.882Z,25.20
2022-08-17T19:20:17.467Z,25.10
2022-08-17T19:23:03.578Z,25.10
2022-08-17T19:25:35.277Z,25.30
2022-08-17T19:28:21.674Z,25.10
2022-08-17T19:30:55.885Z,25.10
2022-08-17T19:33:24.802Z,25.30
2022-08-17T19:36:02.967Z,25.30
2022-08-17T19:38:41.349Z,25.20
2022-08-17T19:41:17.529Z,25.20
2022-08-17T19:43:58.737Z,25.00
2022-08-17T19:46:36.230Z,24.50
2022-08-17T19:49:16.609Z,24.40
2022-08-17T19:51:52.895Z,25.40
2022-08-17T19:54:30.464Z,25.40
2022-08-17T19:57:11.243Z,25.40
2022-08-17T19:59:49.488Z,25.50
2022-08-17T20:02:31.747Z,25.50
2022-08-17T20:05:06.164Z,25.40
2022-08-17T20:07:45.470Z,25.70
2022-08-17T20:10:24.280Z,25.40
2022-08-17T20:12:54.435Z,25.80
2022-08-17T20:15:29.529Z,25.40
2022-08-17T20:18:01.297Z,25.50
2022-08-17T20:20:36.180Z,25.30
2022-08-17T20:23:12.321Z,25.40
2022-08-17T20:25:47.034Z,25.20
2022-08-17T20:28:23.784Z,24.90
2022-08-17T20:30:52.965Z,24.90
2022-08-17T20:33:28.449Z,24.90
2022-08-17T20:36:17.819Z,24.80
2022-08-17T20:38:50.416Z,25.00
2022-08-17T20:41:22.536Z,25.00
2022-08-17T20:44:06.492Z,25.10
2022-08-17T20:46:57.798Z,25.20
2022-08-17T20:49:32.333Z,25.10
2022-08-17T20:52:03.665Z,25.10
2022-08-17T20:54:48.816Z,25.60
2022-08-17T20:57:47.329Z,25.60
2022-08-17T21:00:43.609Z,25.60
2022-08-17T21:03:50.087Z,25.30
2022-08-17T21:06:22.948Z,25.30
2022-08-17T21:08:58.531Z,25.00
2022-08-17T21:12:04.011Z,25.00
2022-08-17T21:15:04.481Z,24.90
2022-08-17T21:17:47.162Z,24.60
2022-08-17T21:20:32.571Z,24.60
2022-08-17T21:23:19.141Z,24.70
2022-08-17T21:26:35.367Z,24.60
2022-08-17T21:29:32.046Z,24.40
2022-08-17T21:32:24.179Z,24.70
2022-08-17T21:35:28.794Z,24.50
2022-08-17T21:38:06.485Z,24.50
2022-08-17T21:40:36.314Z,24.50
2022-08-17T21:43:23.411Z,24.40
2022-08-17T21:46:25.709Z,24.30
2022-08-17T21:48:59.782Z,24.30
2022-08-17T21:51:31.422Z,24.20
2022-08-17T21:54:04.600Z,24.50
2022-08-17T21:56:36.497Z,24.40
2022-08-17T21:59:07.932Z,24.40
2022-08-17T22:01:41.447Z,24.70
2022-08-17T22:04:21.461Z,24.40
2022-08-17T22:06:56.922Z,24.50
2022-08-17T22:09:29.891Z,24.60
2022-08-17T22:12:04.250Z,24.30
2022-08-17T22:14:51.558Z,24.10
2022-08-17T22:17:26.531Z,23.90
2022-08-17T22:19:58.037Z,23.90
2022-08-17T22:22:32.434Z,23.70
2022-08-17T22:25:02.529Z,23.60
2022-08-17T22:27:54.401Z,23.50
2022-08-17T22:30:33.105Z,23.40
2022-08-17T22:33:23.299Z,23.30
2022-08-17T22:36:14.829Z,23.30
2022-08-17T22:38:44.646Z,23.40
2022-08-17T22:41:50.931Z,23.30
2022-08-17T22:44:27.143Z,23.80
2022-08-17T22:47:02.205Z,22.30
2022-08-17T22:49:34.154Z,22.30
2022-08-17T22:52:23.328Z,21.60
2022-08-17T22:55:22.875Z,21.60
2022-08-17T22:58:08.954Z,22.10
2022-08-17T23:00:40.135Z,21.40
2022-08-17T23:03:16.008Z,21.30
2022-08-17T23:05:47.313Z,20.70
2022-08-17T23:08:21.042Z,20.10
2022-08-17T23:10:49.884Z,19.80
2022-08-17T23:13:18.046Z,19.50
2022-08-17T23:15:48.131Z,19.30
2022-08-17T23:18:17.550Z,19.20
2022-08-17T23:20:46.584Z,19.30
2022-08-17T23:23:18.795Z,19.10
2022-08-17T23:25:50.210Z,18.90
2022-08-17T23:28:18.279Z,18.80
2022-08-17T23:30:48.357Z,18.90
2022-08-17T23:33:19.826Z,18.70
2022-08-17T23:35:47.890Z,19.70
2022-08-17T23:38:17.289Z,19.00
2022-08-17T23:40:45.509Z,19.60
2022-08-17T23:43:23.491Z,19.10
2022-08-17T23:45:54.284Z,18.50
2022-08-17T23:48:28.497Z,18.70
2022-08-17T23:51:09.450Z,18.60
2022-08-17T23:53:44.002Z,18.50
2022-08-17T23:56:12.061Z,18.30
2022-08-17T23:58:42.145Z,18.70
